createdAt,value
2019-05-18T00:00:10.361Z,64.33
2019-05-18T00:02:38.980Z,63.13
2019-05-18T00:05:08.096Z,64.07
2019-05-18T00:07:36.827Z,63.08
2019-05-18T00:10:07.024Z,62.70
2019-05-18T00:12:35.731Z,66.56
2019-05-18T00:15:06.660Z,65.31
2019-05-18T00:17:35.358Z,65.78
2019-05-18T00:20:07.638Z,64.29
2019-05-18T00:22:36.364Z,63.43
2019-05-18T00:25:06.623Z,62.93
2019-05-18T00:27:35.247Z,63.42
2019-05-18T00:30:08.123Z,63.01
2019-05-18T00:32:36.833Z,62.27
2019-05-18T00:35:07.236Z,62.49
2019-05-18T00:37:36.015Z,63.06
2019-05-18T00:40:06.677Z,62.86
2019-05-18T00:42:35.299Z,62.82
2019-05-18T00:45:05.535Z,61.77
2019-05-18T00:47:41.345Z,61.45
2019-05-18T00:50:05.445Z,61.44
2019-05-18T00:52:34.190Z,61.48
2019-05-18T00:55:02.885Z,61.13
2019-05-18T00:57:31.581Z,60.36
2019-05-18T01:00:00.329Z,60.28
2019-05-18T01:02:29.026Z,60.59
2019-05-18T01:04:57.718Z,60.57
2019-05-18T01:07:26.458Z,60.71
2019-05-18T01:09:55.151Z,60.42
2019-05-18T01:12:23.841Z,60.38
2019-05-18T01:14:52.572Z,60.41
2019-05-18T01:17:21.200Z,61.36
2019-05-18T01:19:49.904Z,62.01
2019-05-18T01:22:18.627Z,62.23
2019-05-18T01:24:47.335Z,61.40
2019-05-18T01:27:16.057Z,61.68
2019-05-18T01:29:44.797Z,61.39
2019-05-18T01:32:13.414Z,62.02
2019-05-18T01:34:42.113Z,63.10
2019-05-18T01:37:10.845Z,63.45
2019-05-18T01:39:39.546Z,63.03
2019-05-18T01:42:08.250Z,62.52
2019-05-18T01:44:36.977Z,62.21
2019-05-18T01:47:05.670Z,61.94
2019-05-18T01:49:34.375Z,61.49
2019-05-18T01:52:03.144Z,60.71
2019-05-18T01:54:31.818Z,62.41
2019-05-18T01:57:00.632Z,61.59
2019-05-18T01:59:29.419Z,60.80
2019-05-18T02:01:58.119Z,60.90
2019-05-18T02:04:26.818Z,61.07
2019-05-18T02:06:55.535Z,61.53
2019-05-18T02:09:24.235Z,61.83
2019-05-18T02:11:52.946Z,61.73
2019-05-18T02:14:21.672Z,62.57
2019-05-18T02:16:50.369Z,62.79
2019-05-18T02:19:19.072Z,61.29
2019-05-18T02:21:47.806Z,62.99
2019-05-18T02:24:16.501Z,63.74
2019-05-18T02:26:45.204Z,64.57
2019-05-18T02:29:13.936Z,63.60
2019-05-18T02:31:42.635Z,64.13
2019-05-18T02:34:11.337Z,63.07
2019-05-18T02:36:40.108Z,64.21
2019-05-18T02:39:09.608Z,63.44
2019-05-18T02:41:38.311Z,64.77
2019-05-18T02:44:07.242Z,64.95
2019-05-18T02:46:35.932Z,64.22
2019-05-18T02:49:04.630Z,64.40
2019-05-18T02:51:34.386Z,63.78
2019-05-18T02:54:03.078Z,62.22
2019-05-18T02:56:33.849Z,61.74
2019-05-18T02:59:02.591Z,61.63
2019-05-18T03:01:31.285Z,62.47
2019-05-18T03:03:59.908Z,62.98
2019-05-18T03:06:28.663Z,63.54
2019-05-18T03:08:57.378Z,62.21
2019-05-18T03:11:26.003Z,62.54
2019-05-18T03:13:54.656Z,62.31
2019-05-18T03:16:23.360Z,61.50
2019-05-18T03:19:06.779Z,61.45
2019-05-18T03:21:22.520Z,61.93
2019-05-18T03:23:51.138Z,67.91
2019-05-18T03:26:19.838Z,65.35
2019-05-18T03:28:48.572Z,64.00
2019-05-18T03:31:17.272Z,63.28
2019-05-18T03:33:46.076Z,66.21
2019-05-18T03:36:14.804Z,65.72
2019-05-18T03:38:43.495Z,66.45
2019-05-18T03:41:12.195Z,66.57
2019-05-18T03:43:40.936Z,65.13
2019-05-18T03:46:09.636Z,66.87
2019-05-18T03:48:38.337Z,67.33
2019-05-18T03:51:07.390Z,67.85
2019-05-18T03:53:36.047Z,69.43
2019-05-18T03:56:04.726Z,66.96
2019-05-18T03:58:33.469Z,66.28
2019-05-18T04:01:02.376Z,67.19
2019-05-18T04:03:31.056Z,71.28
2019-05-18T04:05:59.782Z,69.89
2019-05-18T04:08:28.485Z,68.96
2019-05-18T04:10:57.182Z,68.46
2019-05-18T04:13:25.876Z,70.02
2019-05-18T04:15:54.569Z,68.82
2019-05-18T04:18:23.268Z,70.62
2019-05-18T04:20:51.947Z,69.68
2019-05-18T04:23:20.649Z,69.83
2019-05-18T04:25:49.358Z,69.49
2019-05-18T04:28:18.188Z,69.05
2019-05-18T04:30:46.795Z,69.29
2019-05-18T04:33:15.499Z,69.00
2019-05-18T04:35:44.252Z,69.30
2019-05-18T04:38:12.950Z,69.10
2019-05-18T04:40:41.641Z,67.93
2019-05-18T04:43:10.383Z,70.85
2019-05-18T04:45:39.090Z,69.06
2019-05-18T04:48:07.783Z,68.51
2019-05-18T04:50:37.614Z,70.22
2019-05-18T04:53:06.308Z,71.44
2019-05-18T04:55:35.527Z,71.03
2019-05-18T04:58:04.274Z,69.77
2019-05-18T05:00:32.971Z,69.18
2019-05-18T05:03:01.670Z,68.90
2019-05-18T05:05:30.428Z,69.17
2019-05-18T05:07:59.066Z,70.69
2019-05-18T05:10:27.766Z,70.63
2019-05-18T05:12:57.336Z,68.71
2019-05-18T05:15:25.976Z,69.65
2019-05-18T05:17:54.683Z,71.22
2019-05-18T05:20:23.428Z,70.13
2019-05-18T05:22:52.052Z,68.44
2019-05-18T05:25:20.745Z,67.75
2019-05-18T05:27:49.485Z,67.55
2019-05-18T05:30:18.383Z,69.31
2019-05-18T05:32:47.091Z,67.72
2019-05-18T05:35:15.827Z,66.58
2019-05-18T05:37:44.544Z,67.21
2019-05-18T05:40:13.257Z,67.23
2019-05-18T05:42:41.972Z,66.18
2019-05-18T05:45:11.073Z,65.83
2019-05-18T05:47:39.779Z,64.48
2019-05-18T05:50:09.104Z,65.46
2019-05-18T05:52:37.741Z,65.58
2019-05-18T05:55:08.550Z,68.42
2019-05-18T05:57:37.290Z,68.59
2019-05-18T06:00:06.588Z,68.10
2019-05-18T06:02:35.293Z,69.69
2019-05-18T06:05:05.044Z,69.08
2019-05-18T06:07:34.153Z,69.81
2019-05-18T06:10:02.775Z,69.17
2019-05-18T06:12:31.510Z,68.56
2019-05-18T06:15:01.060Z,67.50
2019-05-18T06:17:29.703Z,68.82
2019-05-18T06:19:58.438Z,68.02
2019-05-18T06:22:27.083Z,66.70
2019-05-18T06:24:55.803Z,67.91
2019-05-18T06:27:24.544Z,68.29
2019-05-18T06:29:53.253Z,68.34
2019-05-18T06:32:21.968Z,68.92
2019-05-18T06:34:50.696Z,67.54
2019-05-18T06:37:19.342Z,64.91
2019-05-18T06:39:48.036Z,65.23
2019-05-18T06:42:16.792Z,64.32
2019-05-18T06:44:45.491Z,67.48
2019-05-18T06:47:14.203Z,67.12
2019-05-18T06:49:42.881Z,67.64
2019-05-18T06:52:11.584Z,66.26
2019-05-18T06:54:40.280Z,65.05
2019-05-18T06:57:09.927Z,65.76
2019-05-18T06:59:38.928Z,64.81
2019-05-18T07:02:07.643Z,63.71
2019-05-18T07:04:36.377Z,63.75
2019-05-18T07:07:05.088Z,64.13
2019-05-18T07:09:33.789Z,63.11
2019-05-18T07:12:02.588Z,62.16
2019-05-18T07:14:31.319Z,62.50
2019-05-18T07:17:00.891Z,63.23
2019-05-18T07:19:29.625Z,63.52
2019-05-18T07:21:58.332Z,60.77
2019-05-18T07:24:27.039Z,59.68
2019-05-18T07:26:56.649Z,60.73
2019-05-18T07:29:25.355Z,62.30
2019-05-18T07:31:54.065Z,61.79
2019-05-18T07:34:26.435Z,62.53
2019-05-18T07:36:53.233Z,64.33
2019-05-18T07:39:21.872Z,62.19
2019-05-18T07:41:50.611Z,61.71
2019-05-18T07:44:19.326Z,60.46
2019-05-18T07:46:48.036Z,61.58
2019-05-18T07:49:16.798Z,60.09
2019-05-18T07:51:45.510Z,62.60
2019-05-18T07:54:14.218Z,60.22
2019-05-18T07:56:42.956Z,60.71
2019-05-18T07:59:11.666Z,61.57
2019-05-18T08:01:40.374Z,62.96
2019-05-18T08:04:09.117Z,60.89
2019-05-18T08:06:37.766Z,58.34
2019-05-18T08:09:08.178Z,58.29
2019-05-18T08:11:36.972Z,59.80
2019-05-18T08:14:05.782Z,58.01
2019-05-18T08:16:34.486Z,58.36
2019-05-18T08:19:04.067Z,58.29
2019-05-18T08:21:32.775Z,58.35
2019-05-18T08:24:01.481Z,57.59
2019-05-18T08:26:30.242Z,57.79
2019-05-18T08:28:58.929Z,59.35
2019-05-18T08:31:27.639Z,59.65
2019-05-18T08:33:56.381Z,58.01
2019-05-18T08:36:25.085Z,57.27
2019-05-18T08:38:53.799Z,57.27
2019-05-18T08:41:22.548Z,59.61
2019-05-18T08:43:51.244Z,58.92
2019-05-18T08:46:19.943Z,58.56
2019-05-18T08:48:48.688Z,56.25
2019-05-18T08:51:17.392Z,55.65
2019-05-18T08:53:46.094Z,55.00
2019-05-18T08:56:14.832Z,55.49
2019-05-18T08:58:43.544Z,55.24
2019-05-18T09:01:12.239Z,56.91
2019-05-18T09:03:40.979Z,55.80
2019-05-18T09:06:09.691Z,56.58
2019-05-18T09:08:38.397Z,54.80
2019-05-18T09:11:07.153Z,54.97
2019-05-18T09:13:35.860Z,55.61
2019-05-18T09:16:04.549Z,54.99
2019-05-18T09:18:33.236Z,54.88
2019-05-18T09:21:02.792Z,56.00
2019-05-18T09:23:31.492Z,54.66
2019-05-18T09:26:00.250Z,54.43
2019-05-18T09:28:29.146Z,54.85
2019-05-18T09:30:57.844Z,54.14
2019-05-18T09:33:26.587Z,53.95
2019-05-18T09:35:55.293Z,53.28
2019-05-18T09:38:24.002Z,54.25
2019-05-18T09:40:52.681Z,54.15
2019-05-18T09:43:21.383Z,54.07
2019-05-18T09:45:50.021Z,53.87
2019-05-18T09:48:18.756Z,53.04
2019-05-18T09:50:47.468Z,54.12
2019-05-18T09:53:16.171Z,53.68
2019-05-18T09:55:44.914Z,51.77
2019-05-18T09:58:13.633Z,51.72
2019-05-18T10:00:42.257Z,50.66
2019-05-18T10:03:11.010Z,49.65
2019-05-18T10:05:39.713Z,49.28
2019-05-18T10:08:08.441Z,50.87
2019-05-18T10:10:37.163Z,49.83
2019-05-18T10:13:05.801Z,49.52
2019-05-18T10:15:34.528Z,49.89
2019-05-18T10:18:03.281Z,49.17
2019-05-18T10:20:31.985Z,48.96
2019-05-18T10:23:12.342Z,50.13
2019-05-18T10:25:32.046Z,49.35
2019-05-18T10:28:00.757Z,49.43
2019-05-18T10:30:29.461Z,48.51
2019-05-18T10:32:58.213Z,46.70
2019-05-18T10:35:26.914Z,47.91
2019-05-18T10:37:55.640Z,46.82
2019-05-18T10:40:24.376Z,47.09
2019-05-18T10:42:53.092Z,48.74
2019-05-18T10:45:21.895Z,47.18
2019-05-18T10:47:51.694Z,47.12
2019-05-18T10:50:20.350Z,47.31
2019-05-18T10:52:49.051Z,46.18
2019-05-18T10:55:17.990Z,46.63
2019-05-18T10:57:46.686Z,46.19
2019-05-18T11:00:16.184Z,45.92
2019-05-18T11:02:44.922Z,44.91
2019-05-18T11:05:15.296Z,46.00
2019-05-18T11:07:43.999Z,44.47
2019-05-18T11:10:13.236Z,44.29
2019-05-18T11:12:41.860Z,44.73
2019-05-18T11:15:11.770Z,45.01
2019-05-18T11:17:40.492Z,42.60
2019-05-18T11:20:13.497Z,43.38
2019-05-18T11:22:42.206Z,43.44
2019-05-18T11:25:11.790Z,42.54
2019-05-18T11:27:40.488Z,42.56
2019-05-18T11:30:10.458Z,44.78
2019-05-18T11:32:39.455Z,42.26
2019-05-18T11:35:09.189Z,41.96
2019-05-18T11:37:37.900Z,40.74
2019-05-18T11:40:08.061Z,44.36
2019-05-18T11:42:36.769Z,43.12
2019-05-18T11:45:08.786Z,42.35
2019-05-18T11:47:37.510Z,44.74
2019-05-18T11:50:08.330Z,41.13
2019-05-18T11:52:37.118Z,40.22
2019-05-18T11:55:08.243Z,39.67
2019-05-18T11:57:36.944Z,41.76
2019-05-18T12:00:09.512Z,41.97
2019-05-18T12:02:38.253Z,41.39
2019-05-18T12:05:08.687Z,40.67
2019-05-18T12:07:37.393Z,40.24
2019-05-18T12:10:10.879Z,40.83
2019-05-18T12:12:39.577Z,43.26
2019-05-18T12:15:31.926Z,37.75
2019-05-18T12:18:00.590Z,36.29
2019-05-18T12:20:29.316Z,34.93
2019-05-18T12:22:58.074Z,37.35
2019-05-18T12:25:26.769Z,35.33
2019-05-18T12:27:56.401Z,36.45
2019-05-18T12:30:25.911Z,34.51
2019-05-18T12:32:54.603Z,33.52
2019-05-18T12:35:23.311Z,36.02
2019-05-18T12:37:51.979Z,31.47
2019-05-18T12:40:21.778Z,29.96
2019-05-18T12:42:50.490Z,30.64
2019-05-18T12:45:19.646Z,31.00
2019-05-18T12:47:48.332Z,29.02
2019-05-18T12:50:18.128Z,30.09
2019-05-18T12:52:46.868Z,29.90
2019-05-18T12:55:17.462Z,29.52
2019-05-18T12:57:46.163Z,29.56
2019-05-18T13:00:16.398Z,29.92
2019-05-18T13:02:45.093Z,29.96
2019-05-18T13:05:15.191Z,31.87
2019-05-18T13:07:43.925Z,31.03
2019-05-18T13:10:13.512Z,30.02
2019-05-18T13:12:42.247Z,30.52
2019-05-18T13:15:12.440Z,29.58
2019-05-18T13:17:41.128Z,31.11
2019-05-18T13:20:12.004Z,29.84
2019-05-18T13:22:40.736Z,30.20
2019-05-18T13:25:09.863Z,29.35
2019-05-18T13:27:40.037Z,28.86
2019-05-18T13:30:13.746Z,31.86
2019-05-18T13:32:42.584Z,30.44
2019-05-18T13:35:13.186Z,30.32
2019-05-18T13:37:41.919Z,28.84
2019-05-18T13:40:11.019Z,32.87
2019-05-18T13:42:39.721Z,34.65
2019-05-18T13:45:09.958Z,35.25
2019-05-18T13:47:38.713Z,34.67
2019-05-18T13:50:08.039Z,34.65
2019-05-18T13:52:36.767Z,33.91
2019-05-18T13:55:06.293Z,34.90
2019-05-18T13:57:35.295Z,34.05
2019-05-18T14:00:06.332Z,32.93
2019-05-18T14:02:35.070Z,35.55
2019-05-18T14:05:03.778Z,35.82
2019-05-18T14:07:32.513Z,35.70
2019-05-18T14:10:01.204Z,34.86
2019-05-18T14:12:29.895Z,33.67
2019-05-18T14:14:58.625Z,33.66
2019-05-18T14:17:27.330Z,32.40
2019-05-18T14:19:56.020Z,34.12
2019-05-18T14:22:24.835Z,33.38
2019-05-18T14:24:53.532Z,33.55
2019-05-18T14:27:22.924Z,31.86
2019-05-18T14:29:51.656Z,30.34
2019-05-18T14:32:21.200Z,30.03
2019-05-18T14:34:49.889Z,30.03
2019-05-18T14:37:18.621Z,28.93
2019-05-18T14:39:47.321Z,29.57
2019-05-18T14:42:16.028Z,30.71
2019-05-18T14:44:44.750Z,30.74
2019-05-18T14:47:13.451Z,29.71
2019-05-18T14:49:42.146Z,30.75
2019-05-18T14:52:12.146Z,31.82
2019-05-18T14:54:41.112Z,31.94
2019-05-18T14:57:09.816Z,30.42
2019-05-18T14:59:38.546Z,30.13
2019-05-18T15:02:07.251Z,28.92
2019-05-18T15:04:35.948Z,31.41
2019-05-18T15:07:04.688Z,30.79
2019-05-18T15:09:33.383Z,34.18
2019-05-18T15:12:02.110Z,33.10
2019-05-18T15:14:30.774Z,32.74
2019-05-18T15:16:59.472Z,32.15
2019-05-18T15:19:28.176Z,31.73
2019-05-18T15:21:56.909Z,33.43
2019-05-18T15:24:25.601Z,31.94
2019-05-18T15:26:54.301Z,34.78
2019-05-18T15:29:23.058Z,32.65
2019-05-18T15:31:51.783Z,32.01
2019-05-18T15:34:21.371Z,31.99
2019-05-18T15:36:50.019Z,33.71
2019-05-18T15:39:18.716Z,31.65
2019-05-18T15:41:47.408Z,33.00
2019-05-18T15:44:16.141Z,31.83
2019-05-18T15:46:44.839Z,34.12
2019-05-18T15:49:13.552Z,34.12
2019-05-18T15:51:42.260Z,34.46
2019-05-18T15:54:10.961Z,33.24
2019-05-18T15:56:39.654Z,34.72
2019-05-18T15:59:08.389Z,33.95
2019-05-18T16:01:37.124Z,33.00
2019-05-18T16:04:06.668Z,33.30
2019-05-18T16:06:35.535Z,34.88
2019-05-18T16:09:05.564Z,34.98
2019-05-18T16:11:34.259Z,34.67
2019-05-18T16:14:02.993Z,33.23
2019-05-18T16:16:31.694Z,33.54
2019-05-18T16:19:00.389Z,35.00
2019-05-18T16:21:29.121Z,33.75
2019-05-18T16:23:57.831Z,34.98
2019-05-18T16:26:28.109Z,35.36
2019-05-18T16:28:56.902Z,34.12
2019-05-18T16:31:25.602Z,34.02
2019-05-18T16:33:54.317Z,34.79
2019-05-18T16:36:23.834Z,34.60
2019-05-18T16:38:52.706Z,34.59
2019-05-18T16:41:21.398Z,34.58
2019-05-18T16:43:50.139Z,35.59
2019-05-18T16:46:18.846Z,34.20
2019-05-18T16:48:47.566Z,35.17
2019-05-18T16:51:16.295Z,35.91
2019-05-18T16:53:49.420Z,38.28
2019-05-18T16:56:15.409Z,37.02
2019-05-18T16:58:44.183Z,37.00
2019-05-18T17:01:12.869Z,36.25
2019-05-18T17:03:41.576Z,35.87
2019-05-18T17:06:10.617Z,36.97
2019-05-18T17:08:39.310Z,37.05
2019-05-18T17:11:08.017Z,37.83
2019-05-18T17:13:36.762Z,37.76
2019-05-18T17:16:05.459Z,37.41
2019-05-18T17:18:34.151Z,38.81
2019-05-18T17:21:02.889Z,38.53
2019-05-18T17:23:31.514Z,40.56
2019-05-18T17:26:00.206Z,39.51
2019-05-18T17:28:28.952Z,38.71
2019-05-18T17:30:57.649Z,40.61
2019-05-18T17:33:28.781Z,39.57
2019-05-18T17:36:00.485Z,39.48
2019-05-18T17:38:28.913Z,38.50
2019-05-18T17:40:57.530Z,39.19
2019-05-18T17:43:26.279Z,39.36
2019-05-18T17:45:55.001Z,40.02
2019-05-18T17:48:23.705Z,40.80
2019-05-18T17:50:52.439Z,40.36
2019-05-18T17:53:21.140Z,41.04
2019-05-18T17:55:49.854Z,41.28
2019-05-18T17:58:18.587Z,42.76
2019-05-18T18:00:47.271Z,40.05
2019-05-18T18:03:15.974Z,41.39
2019-05-18T18:05:44.698Z,41.21
2019-05-18T18:08:13.392Z,43.40
2019-05-18T18:10:42.108Z,42.00
2019-05-18T18:13:10.838Z,41.85
2019-05-18T18:15:39.539Z,42.30
2019-05-18T18:18:08.261Z,40.10
2019-05-18T18:20:36.929Z,40.42
2019-05-18T18:23:05.619Z,40.85
2019-05-18T18:25:34.520Z,40.56
2019-05-18T18:28:03.251Z,39.23
2019-05-18T18:30:31.950Z,38.51
2019-05-18T18:33:00.642Z,37.51
2019-05-18T18:35:29.373Z,37.04
2019-05-18T18:37:58.077Z,37.51
2019-05-18T18:40:27.782Z,37.09
2019-05-18T18:42:56.518Z,37.90
2019-05-18T18:45:25.215Z,37.17
2019-05-18T18:47:53.906Z,36.70
2019-05-18T18:50:22.641Z,37.34
2019-05-18T18:52:51.350Z,36.39
2019-05-18T18:55:20.227Z,36.81
2019-05-18T18:57:48.955Z,36.99
2019-05-18T19:00:18.619Z,35.88
2019-05-18T19:02:47.322Z,35.55
2019-05-18T19:05:16.152Z,35.65
2019-05-18T19:07:44.893Z,36.12
2019-05-18T19:10:13.668Z,35.61
2019-05-18T19:12:42.420Z,35.59
2019-05-18T19:15:11.613Z,36.18
2019-05-18T19:17:40.232Z,36.51
2019-05-18T19:20:09.266Z,37.00
2019-05-18T19:22:37.901Z,36.30
2019-05-18T19:25:06.800Z,37.05
2019-05-18T19:27:35.560Z,38.06
2019-05-18T19:30:09.873Z,37.92
2019-05-18T19:32:38.668Z,38.93
2019-05-18T19:35:08.706Z,38.26
2019-05-18T19:37:37.336Z,37.47
2019-05-18T19:40:07.427Z,37.21
2019-05-18T19:42:37.001Z,36.80
2019-05-18T19:45:09.454Z,36.59
2019-05-18T19:47:38.131Z,36.07
2019-05-18T19:50:10.265Z,36.58
2019-05-18T19:52:38.974Z,36.82
2019-05-18T19:55:07.868Z,36.25
2019-05-18T19:57:36.606Z,37.66
2019-05-18T20:00:08.180Z,37.84
2019-05-18T20:02:36.890Z,37.28
2019-05-18T20:05:09.194Z,37.91
2019-05-18T20:07:38.198Z,37.56
2019-05-18T20:10:08.769Z,37.31
2019-05-18T20:12:37.506Z,39.16
2019-05-18T20:15:09.369Z,39.01
2019-05-18T20:17:36.920Z,40.01
2019-05-18T20:20:07.444Z,40.35
2019-05-18T20:22:36.074Z,40.90
2019-05-18T20:25:05.367Z,41.24
2019-05-18T20:27:34.102Z,42.06
2019-05-18T20:30:02.803Z,41.49
2019-05-18T20:32:31.502Z,40.52
2019-05-18T20:35:00.241Z,40.78
2019-05-18T20:37:28.936Z,42.78
2019-05-18T20:39:57.643Z,42.14
2019-05-18T20:42:26.364Z,42.16
2019-05-18T20:44:55.911Z,41.88
2019-05-18T20:47:24.625Z,41.97
2019-05-18T20:49:53.347Z,43.25
2019-05-18T20:52:22.047Z,43.30
2019-05-18T20:54:50.749Z,42.96
2019-05-18T20:57:19.481Z,44.19
2019-05-18T20:59:48.178Z,44.86
2019-05-18T21:02:16.869Z,45.17
2019-05-18T21:04:45.597Z,45.35
2019-05-18T21:07:14.292Z,45.02
2019-05-18T21:09:43.016Z,44.10
2019-05-18T21:12:11.728Z,46.00
2019-05-18T21:14:40.429Z,46.44
2019-05-18T21:17:09.052Z,46.34
2019-05-18T21:19:37.787Z,46.80
2019-05-18T21:22:06.444Z,47.37
2019-05-18T21:24:35.043Z,47.08
2019-05-18T21:27:03.983Z,47.38
2019-05-18T21:29:32.676Z,48.03
2019-05-18T21:32:01.368Z,48.63
2019-05-18T21:34:30.098Z,49.19
2019-05-18T21:36:58.794Z,50.16
2019-05-18T21:39:27.487Z,50.39
2019-05-18T21:41:56.228Z,49.64
2019-05-18T21:44:24.928Z,49.54
2019-05-18T21:46:54.486Z,49.02
2019-05-18T21:49:23.199Z,49.10
2019-05-18T21:51:51.911Z,48.80
2019-05-18T21:54:20.694Z,49.44
2019-05-18T21:56:49.365Z,49.03
2019-05-18T21:59:17.999Z,49.08
2019-05-18T22:01:46.693Z,48.94
2019-05-18T22:04:15.422Z,48.18
2019-05-18T22:06:44.123Z,48.88
2019-05-18T22:09:12.925Z,48.09
2019-05-18T22:11:41.686Z,48.51
2019-05-18T22:14:10.461Z,47.87
2019-05-18T22:16:39.151Z,47.69
2019-05-18T22:19:07.883Z,47.09
2019-05-18T22:21:36.567Z,49.43
2019-05-18T22:24:05.263Z,49.17
2019-05-18T22:26:33.920Z,49.02
2019-05-18T22:29:02.731Z,48.50
2019-05-18T22:31:31.410Z,50.37
2019-05-18T22:34:00.134Z,49.56
2019-05-18T22:36:28.876Z,49.13
2019-05-18T22:38:57.554Z,49.38
2019-05-18T22:41:28.330Z,49.47
2019-05-18T22:43:57.022Z,48.52
2019-05-18T22:46:25.717Z,49.44
2019-05-18T22:48:55.305Z,49.32
2019-05-18T22:51:23.988Z,49.17
2019-05-18T22:53:52.680Z,49.35
2019-05-18T22:56:21.547Z,49.32
2019-05-18T22:58:50.321Z,49.24
2019-05-18T23:01:19.014Z,49.20
2019-05-18T23:03:47.745Z,49.27
2019-05-18T23:06:16.445Z,49.47
2019-05-18T23:08:45.143Z,49.52
2019-05-18T23:11:13.905Z,50.36
2019-05-18T23:13:42.529Z,50.16
2019-05-18T23:16:11.229Z,52.02
2019-05-18T23:18:39.959Z,52.19
2019-05-18T23:21:08.767Z,51.36
2019-05-18T23:23:37.459Z,50.39
2019-05-18T23:26:06.114Z,50.37
2019-05-18T23:28:34.819Z,50.33
2019-05-18T23:31:03.520Z,51.10
2019-05-18T23:33:32.247Z,49.75
2019-05-18T23:36:00.949Z,49.96
2019-05-18T23:38:29.687Z,50.21
2019-05-18T23:40:58.449Z,49.96
2019-05-18T23:43:27.081Z,50.04
2019-05-18T23:45:56.069Z,50.37
2019-05-18T23:48:24.800Z,49.92
2019-05-18T23:50:54.362Z,49.62
2019-05-18T23:53:23.030Z,49.37
2019-05-18T23:55:51.760Z,49.67
2019-05-18T23:58:20.458Z,49.78
